createdAt,value
2018-06-16T00:01:06.677Z,66.32
2018-06-16T00:03:36.263Z,67.77
2018-06-16T00:06:05.764Z,67.18
2018-06-16T00:08:35.282Z,66.73
2018-06-16T00:11:11.296Z,67.00
2018-06-16T00:13:40.787Z,66.75
2018-06-16T00:16:10.304Z,65.85
2018-06-16T00:18:39.938Z,67.27
2018-06-16T00:21:09.554Z,67.32
2018-06-16T00:23:38.974Z,67.69
2018-06-16T00:26:08.507Z,67.78
2018-06-16T00:28:37.974Z,68.02
2018-06-16T00:31:07.437Z,68.12
2018-06-16T00:33:36.870Z,68.02
2018-06-16T00:36:06.413Z,68.03
2018-06-16T00:38:35.897Z,68.10
2018-06-16T00:41:05.325Z,68.09
2018-06-16T00:43:34.806Z,68.62
2018-06-16T00:46:04.374Z,68.98
2018-06-16T00:48:33.866Z,69.28
2018-06-16T00:51:03.275Z,68.95
2018-06-16T00:53:32.768Z,69.50
2018-06-16T00:56:02.207Z,69.28
2018-06-16T00:58:31.809Z,69.50
2018-06-16T01:01:01.259Z,69.67
2018-06-16T01:03:30.775Z,69.48
2018-06-16T01:06:00.326Z,69.14
2018-06-16T01:08:29.765Z,70.01
2018-06-16T01:10:59.214Z,70.06
2018-06-16T01:13:28.732Z,69.87
2018-06-16T01:15:58.158Z,69.73
2018-06-16T01:18:27.716Z,69.74
2018-06-16T01:20:57.169Z,68.81
2018-06-16T01:23:26.619Z,69.68
2018-06-16T01:25:56.092Z,68.83
2018-06-16T01:28:25.513Z,69.97
2018-06-16T01:30:55.049Z,69.95
2018-06-16T01:33:24.543Z,69.53
2018-06-16T01:35:53.977Z,68.76
2018-06-16T01:38:23.435Z,69.07
2018-06-16T01:40:53.026Z,68.38
2018-06-16T01:43:22.731Z,69.05
2018-06-16T01:45:52.176Z,68.94
2018-06-16T01:48:21.675Z,68.80
2018-06-16T01:50:51.265Z,69.95
2018-06-16T01:53:20.702Z,68.92
2018-06-16T01:55:50.120Z,69.02
2018-06-16T01:58:19.600Z,68.41
2018-06-16T02:00:49.221Z,68.90
2018-06-16T02:03:18.688Z,69.24
2018-06-16T02:05:48.128Z,69.57
2018-06-16T02:08:17.556Z,69.05
2018-06-16T02:10:47.041Z,68.19
2018-06-16T02:13:16.467Z,68.80
2018-06-16T02:15:45.940Z,69.36
2018-06-16T02:18:15.460Z,69.44
2018-06-16T02:20:44.870Z,69.88
2018-06-16T02:23:14.368Z,70.90
2018-06-16T02:25:43.840Z,70.23
2018-06-16T02:28:13.432Z,69.97
2018-06-16T02:30:42.876Z,70.23
2018-06-16T02:33:13.381Z,69.87
2018-06-16T02:35:42.868Z,69.95
2018-06-16T02:38:12.294Z,70.18
2018-06-16T02:40:41.720Z,69.18
2018-06-16T02:43:11.301Z,69.96
2018-06-16T02:45:40.863Z,69.94
2018-06-16T02:48:10.365Z,69.59
2018-06-16T02:50:39.811Z,70.06
2018-06-16T02:53:09.253Z,68.43
2018-06-16T02:55:38.774Z,68.32
2018-06-16T02:58:08.239Z,68.52
2018-06-16T03:00:37.886Z,67.93
2018-06-16T03:03:07.395Z,67.70
2018-06-16T03:05:37.054Z,66.94
2018-06-16T03:08:06.480Z,67.23
2018-06-16T03:10:35.898Z,66.52
2018-06-16T03:13:05.418Z,67.46
2018-06-16T03:15:35.028Z,67.29
2018-06-16T03:18:04.451Z,67.03
2018-06-16T03:20:33.894Z,66.29
2018-06-16T03:23:03.342Z,66.93
2018-06-16T03:25:32.756Z,66.21
2018-06-16T03:28:02.195Z,65.16
2018-06-16T03:30:31.693Z,65.00
2018-06-16T03:33:01.204Z,66.47
2018-06-16T03:35:30.648Z,66.27
2018-06-16T03:38:00.054Z,65.37
2018-06-16T03:40:29.647Z,64.79
2018-06-16T03:42:59.150Z,66.27
2018-06-16T03:45:28.609Z,66.16
2018-06-16T03:47:58.017Z,65.62
2018-06-16T03:50:27.541Z,66.39
2018-06-16T03:52:57.029Z,66.21
2018-06-16T03:55:26.456Z,66.05
2018-06-16T03:57:55.972Z,65.58
2018-06-16T04:00:25.535Z,65.85
2018-06-16T04:02:54.970Z,66.37
2018-06-16T04:05:24.414Z,63.94
2018-06-16T04:07:53.957Z,63.61
2018-06-16T04:10:23.583Z,63.50
2018-06-16T04:12:53.054Z,64.73
2018-06-16T04:15:22.477Z,63.23
2018-06-16T04:17:51.999Z,62.94
2018-06-16T04:20:21.439Z,62.52
2018-06-16T04:22:50.874Z,62.51
2018-06-16T04:25:20.422Z,62.72
2018-06-16T04:27:49.894Z,61.70
2018-06-16T04:30:19.330Z,63.22
2018-06-16T04:32:48.775Z,63.23
2018-06-16T04:35:18.313Z,62.99
2018-06-16T04:37:47.884Z,63.65
2018-06-16T04:40:17.306Z,63.66
2018-06-16T04:42:46.729Z,63.43
2018-06-16T04:45:16.249Z,63.50
2018-06-16T04:47:45.746Z,62.97
2018-06-16T04:50:15.197Z,63.54
2018-06-16T04:52:44.696Z,62.78
2018-06-16T04:55:14.234Z,63.13
2018-06-16T04:57:43.712Z,63.03
2018-06-16T05:00:13.152Z,62.77
2018-06-16T05:02:42.705Z,62.47
2018-06-16T05:05:12.290Z,62.52
2018-06-16T05:07:41.888Z,62.80
2018-06-16T05:10:11.300Z,62.26
2018-06-16T05:12:40.758Z,63.17
2018-06-16T05:15:10.178Z,63.43
2018-06-16T05:17:39.613Z,64.07
2018-06-16T05:20:09.252Z,64.20
2018-06-16T05:22:38.681Z,63.70
2018-06-16T05:25:08.696Z,62.86
2018-06-16T05:27:38.090Z,63.47
2018-06-16T05:30:07.695Z,63.23
2018-06-16T05:32:37.156Z,62.79
2018-06-16T05:35:06.634Z,63.82
2018-06-16T05:37:36.089Z,64.20
2018-06-16T05:40:05.640Z,63.41
2018-06-16T05:42:35.242Z,63.14
2018-06-16T05:45:04.832Z,63.74
2018-06-16T05:47:34.272Z,63.60
2018-06-16T05:50:17.230Z,63.43
2018-06-16T05:53:08.552Z,63.29
2018-06-16T05:59:07.549Z,62.74
2018-06-16T06:01:47.637Z,62.27
2018-06-16T06:04:29.515Z,62.02
2018-06-16T06:07:15.286Z,61.20
2018-06-16T06:10:14.010Z,60.38
2018-06-16T06:13:03.263Z,60.26
2018-06-16T06:15:50.113Z,60.78
2018-06-16T06:18:49.004Z,62.01
2018-06-16T06:24:27.895Z,60.91
2018-06-16T06:26:57.520Z,61.85
2018-06-16T06:29:27.027Z,60.59
2018-06-16T06:31:56.618Z,60.90
2018-06-16T06:34:26.634Z,60.21
2018-06-16T06:36:56.162Z,60.11
2018-06-16T06:39:26.853Z,58.98
2018-06-16T06:41:56.430Z,58.38
2018-06-16T06:44:26.057Z,56.68
2018-06-16T06:46:55.517Z,58.07
2018-06-16T06:49:25.320Z,58.12
2018-06-16T06:51:57.319Z,57.52
2018-06-16T06:54:26.929Z,57.55
2018-06-16T06:56:56.484Z,56.27
2018-06-16T06:59:26.143Z,58.38
2018-06-16T07:01:55.727Z,56.99
2018-06-16T07:04:25.298Z,55.87
2018-06-16T07:06:54.778Z,55.43
2018-06-16T07:09:25.351Z,56.24
2018-06-16T07:11:55.013Z,55.46
2018-06-16T07:14:24.572Z,55.36
2018-06-16T07:16:54.120Z,54.51
2018-06-16T07:19:23.579Z,53.79
2018-06-16T07:21:53.939Z,54.69
2018-06-16T07:24:29.837Z,53.86
2018-06-16T07:26:59.390Z,54.66
2018-06-16T07:29:29.013Z,54.36
2018-06-16T07:31:58.553Z,53.75
2018-06-16T07:34:28.126Z,54.18
2018-06-16T07:36:57.566Z,53.94
2018-06-16T07:39:27.175Z,52.71
2018-06-16T07:41:56.762Z,54.53
2018-06-16T07:44:26.198Z,55.60
2018-06-16T07:46:55.655Z,53.96
2018-06-16T07:49:25.233Z,53.44
2018-06-16T07:51:54.737Z,52.63
2018-06-16T07:54:24.204Z,52.48
2018-06-16T07:56:53.802Z,53.50
2018-06-16T07:59:23.304Z,52.90
2018-06-16T08:01:52.724Z,53.15
2018-06-16T08:04:22.249Z,52.33
2018-06-16T08:06:51.842Z,53.41
2018-06-16T08:09:21.455Z,52.24
2018-06-16T08:11:50.942Z,53.01
2018-06-16T08:14:20.453Z,52.24
2018-06-16T08:16:50.053Z,51.06
2018-06-16T08:19:19.542Z,50.95
2018-06-16T08:21:49.002Z,51.52
2018-06-16T08:24:18.447Z,51.12
2018-06-16T08:26:48.107Z,50.98
2018-06-16T08:29:17.767Z,50.28
2018-06-16T08:31:47.234Z,49.18
2018-06-16T08:34:16.669Z,48.53
2018-06-16T08:36:46.317Z,49.76
2018-06-16T08:39:15.777Z,49.48
2018-06-16T08:41:45.196Z,48.84
2018-06-16T08:44:14.787Z,48.42
2018-06-16T08:46:44.293Z,49.59
2018-06-16T08:49:13.800Z,47.17
2018-06-16T08:51:43.245Z,45.98
2018-06-16T08:54:12.733Z,45.40
2018-06-16T08:56:42.232Z,46.00
2018-06-16T08:59:11.755Z,44.37
2018-06-16T09:01:41.175Z,42.97
2018-06-16T09:04:10.754Z,43.16
2018-06-16T09:06:40.343Z,42.49
2018-06-16T09:09:10.336Z,43.69
2018-06-16T09:11:39.996Z,44.17
2018-06-16T09:14:09.545Z,43.01
2018-06-16T09:16:39.176Z,43.19
2018-06-16T09:19:08.659Z,43.39
2018-06-16T09:21:38.362Z,43.23
2018-06-16T09:24:07.953Z,42.54
2018-06-16T09:26:37.796Z,43.28
2018-06-16T09:29:07.294Z,43.23
2018-06-16T09:31:36.744Z,43.37
2018-06-16T09:34:06.377Z,44.66
2018-06-16T09:36:35.968Z,42.48
2018-06-16T09:39:09.539Z,42.63
2018-06-16T09:41:39.093Z,40.02
2018-06-16T09:44:08.965Z,41.15
2018-06-16T09:46:38.444Z,40.24
2018-06-16T09:49:07.958Z,40.99
2018-06-16T09:51:37.410Z,41.69
2018-06-16T09:54:06.895Z,40.08
2018-06-16T09:56:36.434Z,42.08
2018-06-16T09:59:06.148Z,39.43
2018-06-16T10:01:35.805Z,39.62
2018-06-16T10:04:05.303Z,38.64
2018-06-16T10:06:34.902Z,40.38
2018-06-16T10:09:06.065Z,37.43
2018-06-16T10:11:35.548Z,37.81
2018-06-16T10:14:05.012Z,35.78
2018-06-16T10:16:34.800Z,37.26
2018-06-16T10:19:04.080Z,35.57
2018-06-16T10:21:33.650Z,37.28
2018-06-16T10:24:03.098Z,35.41
2018-06-16T10:26:32.582Z,34.16
2018-06-16T10:29:02.365Z,33.41
2018-06-16T10:31:32.163Z,33.13
2018-06-16T10:34:01.565Z,33.87
2018-06-16T10:36:31.328Z,32.89
2018-06-16T10:39:00.939Z,34.36
2018-06-16T10:41:30.539Z,36.57
2018-06-16T10:43:59.971Z,37.43
2018-06-16T10:46:29.170Z,34.61
2018-06-16T10:48:58.633Z,35.29
2018-06-16T10:51:28.207Z,35.41
2018-06-16T10:53:57.681Z,36.04
2018-06-16T10:56:27.329Z,36.22
2018-06-16T10:58:56.934Z,37.06
2018-06-16T11:01:26.355Z,37.81
2018-06-16T11:03:55.830Z,37.81
2018-06-16T11:06:25.355Z,36.77
2018-06-16T11:08:54.859Z,36.46
2018-06-16T11:11:24.300Z,38.40
2018-06-16T11:13:53.804Z,37.57
2018-06-16T11:16:24.366Z,38.04
2018-06-16T11:18:54.246Z,39.12
2018-06-16T11:21:23.723Z,37.82
2018-06-16T11:23:53.152Z,37.96
2018-06-16T11:26:22.771Z,40.61
2018-06-16T11:28:52.546Z,43.09
2018-06-16T11:31:21.980Z,40.62
2018-06-16T11:33:51.880Z,40.96
2018-06-16T11:36:21.463Z,41.46
2018-06-16T11:38:50.953Z,42.23
2018-06-16T11:41:20.526Z,41.75
2018-06-16T11:43:50.047Z,41.88
2018-06-16T11:46:19.361Z,41.68
2018-06-16T11:48:48.983Z,39.73
2018-06-16T11:51:18.389Z,39.86
2018-06-16T11:53:47.866Z,36.53
2018-06-16T11:56:17.442Z,34.83
2018-06-16T11:58:46.982Z,35.20
2018-06-16T12:01:16.446Z,33.88
2018-06-16T12:03:46.007Z,38.05
2018-06-16T12:06:15.602Z,37.20
2018-06-16T12:08:44.759Z,39.26
2018-06-16T12:11:14.302Z,40.57
2018-06-16T12:13:43.678Z,40.13
2018-06-16T12:16:13.207Z,41.04
2018-06-16T12:18:42.718Z,37.99
2018-06-16T12:21:12.263Z,38.30
2018-06-16T12:23:41.841Z,37.71
2018-06-16T12:26:11.016Z,37.85
2018-06-16T12:28:40.431Z,36.83
2018-06-16T12:31:09.946Z,34.70
2018-06-16T12:33:39.449Z,30.40
2018-06-16T12:36:08.886Z,29.62
2018-06-16T12:38:38.398Z,28.38
2018-06-16T12:41:08.068Z,29.34
2018-06-16T12:43:37.600Z,28.50
2018-06-16T12:46:07.055Z,29.59
2018-06-16T12:48:36.558Z,28.25
2018-06-16T12:51:06.187Z,25.90
2018-06-16T12:53:35.618Z,24.22
2018-06-16T12:56:05.049Z,24.16
2018-06-16T12:58:35.104Z,22.78
2018-06-16T13:01:04.772Z,18.84
2018-06-16T13:03:34.278Z,18.94
2018-06-16T13:06:03.743Z,19.93
2018-06-16T13:08:33.306Z,19.88
2018-06-16T13:11:02.929Z,22.41
2018-06-16T13:13:32.367Z,23.29
2018-06-16T13:16:01.879Z,23.73
2018-06-16T13:18:31.459Z,24.21
2018-06-16T13:21:00.981Z,23.92
2018-06-16T13:23:30.417Z,24.33
2018-06-16T13:25:59.956Z,23.94
2018-06-16T13:28:29.500Z,22.16
2018-06-16T13:30:58.905Z,19.39
2018-06-16T13:33:28.346Z,18.48
2018-06-16T13:35:57.953Z,17.43
2018-06-16T13:38:27.616Z,15.89
2018-06-16T13:40:57.108Z,16.87
2018-06-16T13:43:26.646Z,16.29
2018-06-16T13:45:56.336Z,15.77
2018-06-16T13:48:25.862Z,15.89
2018-06-16T13:50:55.386Z,16.93
2018-06-16T13:53:24.507Z,19.00
2018-06-16T13:55:55.003Z,21.36
2018-06-16T13:58:24.564Z,22.70
2018-06-16T14:00:53.992Z,24.92
2018-06-16T14:03:23.862Z,25.78
2018-06-16T14:05:53.185Z,27.58
2018-06-16T14:08:22.715Z,29.07
2018-06-16T14:10:52.178Z,29.07
2018-06-16T14:13:21.663Z,29.62
2018-06-16T14:15:51.184Z,29.78
2018-06-16T14:18:20.485Z,29.24
2018-06-16T14:20:49.926Z,29.80
2018-06-16T14:23:19.446Z,29.60
2018-06-16T14:25:49.184Z,27.87
2018-06-16T14:28:18.732Z,29.69
2018-06-16T14:30:48.196Z,31.58
2018-06-16T14:33:17.825Z,30.21
2018-06-16T14:35:47.803Z,31.19
2018-06-16T14:38:17.966Z,33.14
2018-06-16T14:40:47.464Z,32.74
2018-06-16T14:43:17.155Z,32.82
2018-06-16T14:45:46.810Z,32.71
2018-06-16T14:48:16.240Z,33.48
2018-06-16T14:50:45.690Z,33.86
2018-06-16T14:53:15.317Z,33.45
2018-06-16T14:55:44.825Z,33.74
2018-06-16T14:58:14.265Z,32.98
2018-06-16T15:00:43.773Z,33.79
2018-06-16T15:03:13.382Z,33.35
2018-06-16T15:05:43.084Z,33.16
2018-06-16T15:08:12.536Z,33.69
2018-06-16T15:13:39.379Z,33.32
2018-06-16T15:16:08.910Z,34.03
2018-06-16T15:21:06.928Z,36.44
2018-06-16T15:23:36.366Z,35.00
2018-06-16T15:26:06.031Z,37.32
2018-06-16T15:28:35.512Z,37.41
2018-06-16T15:31:04.933Z,36.34
2018-06-16T15:33:34.421Z,37.88
2018-06-16T15:36:04.109Z,37.97
2018-06-16T15:38:33.561Z,37.48
2018-06-16T15:41:02.954Z,37.20
2018-06-16T15:43:32.410Z,37.52
2018-06-16T15:46:01.985Z,38.67
2018-06-16T15:48:31.580Z,36.87
2018-06-16T15:51:01.020Z,37.28
2018-06-16T15:53:30.640Z,37.45
2018-06-16T15:56:00.222Z,38.03
2018-06-16T15:58:29.754Z,36.79
2018-06-16T16:00:58.915Z,38.40
2018-06-16T16:03:28.403Z,38.22
2018-06-16T16:05:57.916Z,39.49
2018-06-16T16:08:27.351Z,43.95
2018-06-16T16:10:56.792Z,45.00
2018-06-16T16:13:28.942Z,48.02
2018-06-16T16:15:58.415Z,50.42
2018-06-16T16:18:27.870Z,56.36
2018-06-16T16:20:57.318Z,61.18
2018-06-16T16:23:26.967Z,64.28
2018-06-16T16:25:56.464Z,65.21
2018-06-16T16:28:25.945Z,65.98
2018-06-16T16:30:55.459Z,67.62
2018-06-16T16:33:25.031Z,69.40
2018-06-16T16:35:55.431Z,69.04
2018-06-16T16:38:27.718Z,70.33
2018-06-16T16:40:59.155Z,70.16
2018-06-16T16:43:29.894Z,70.43
2018-06-16T16:45:59.471Z,69.47
2018-06-16T16:48:32.774Z,69.35
2018-06-16T16:51:02.605Z,67.91
2018-06-16T16:53:37.483Z,67.53
2018-06-16T16:56:10.954Z,67.91
2018-06-16T16:58:40.579Z,68.03
2018-06-16T17:01:10.279Z,67.73
2018-06-16T17:03:39.700Z,67.74
2018-06-16T17:06:16.602Z,68.24
2018-06-16T17:08:48.051Z,67.32
2018-06-16T17:11:18.439Z,67.95
2018-06-16T17:13:48.858Z,69.56
2018-06-16T17:16:19.555Z,67.25
2018-06-16T17:18:50.507Z,67.38
2018-06-16T17:21:22.009Z,68.30
2018-06-16T17:23:52.631Z,68.92
2018-06-16T17:27:00.674Z,66.99
2018-06-16T17:29:35.659Z,66.77
2018-06-16T17:32:07.585Z,67.06
2018-06-16T17:34:38.669Z,67.80
2018-06-16T17:37:09.847Z,67.59
2018-06-16T17:39:41.774Z,66.72
2018-06-16T17:42:13.032Z,66.55
2018-06-16T17:44:44.104Z,66.90
2018-06-16T17:47:14.015Z,66.65
2018-06-16T17:49:45.848Z,65.78
2018-06-16T17:52:16.920Z,66.45
2018-06-16T17:54:47.449Z,67.82
2018-06-16T17:57:18.262Z,68.62
2018-06-16T17:59:48.874Z,68.74
2018-06-16T18:02:19.945Z,68.20
2018-06-16T18:04:51.251Z,67.77
2018-06-16T18:07:22.188Z,68.04
2018-06-16T18:09:52.255Z,68.71
2018-06-16T18:12:24.979Z,69.03
2018-06-16T18:15:06.813Z,69.85
2018-06-16T18:17:36.648Z,69.34
2018-06-16T18:20:06.614Z,66.82
2018-06-16T18:22:36.431Z,67.94
2018-06-16T18:25:06.038Z,68.14
2018-06-16T18:27:35.533Z,66.32
2018-06-16T18:30:05.127Z,67.34
2018-06-16T18:32:35.381Z,58.61
2018-06-16T18:35:04.904Z,61.07
2018-06-16T18:37:34.563Z,60.30
2018-06-16T18:40:06.207Z,62.26
2018-06-16T18:42:35.859Z,64.42
2018-06-16T18:45:05.591Z,63.60
2018-06-16T18:47:35.050Z,62.42
2018-06-16T18:50:05.053Z,62.34
2018-06-16T18:52:34.613Z,61.38
2018-06-16T18:55:04.204Z,62.28
2018-06-16T18:57:33.683Z,63.30
2018-06-16T19:00:08.109Z,63.98
2018-06-16T19:02:37.531Z,64.69
2018-06-16T19:05:08.904Z,65.87
2018-06-16T19:07:38.456Z,63.87
2018-06-16T19:10:09.208Z,65.00
2018-06-16T19:12:38.797Z,64.43
2018-06-16T19:15:08.353Z,64.85
2018-06-16T19:17:37.817Z,65.67
2018-06-16T19:20:07.362Z,65.02
2018-06-16T19:22:36.963Z,62.99
2018-06-16T19:25:06.473Z,65.88
2018-06-16T19:27:36.003Z,65.42
2018-06-16T19:30:05.723Z,64.88
2018-06-16T19:32:35.486Z,66.07
2018-06-16T19:35:05.691Z,65.86
2018-06-16T19:37:35.976Z,66.54
2018-06-16T19:40:05.433Z,63.70
2018-06-16T19:42:35.353Z,61.55
2018-06-16T19:45:05.956Z,63.36
2018-06-16T19:47:36.062Z,63.53
2018-06-16T19:50:05.826Z,65.18
2018-06-16T19:52:35.615Z,65.10
2018-06-16T19:55:05.749Z,65.22
2018-06-16T19:57:35.369Z,65.14
2018-06-16T20:00:05.519Z,65.92
2018-06-16T20:02:36.419Z,65.96
2018-06-16T20:05:06.170Z,65.84
2018-06-16T20:07:35.670Z,65.52
2018-06-16T20:10:06.128Z,65.52
2018-06-16T20:12:36.180Z,64.92
2018-06-16T20:15:07.388Z,63.34
2018-06-16T20:17:37.637Z,63.83
2018-06-16T20:20:09.717Z,60.38
2018-06-16T20:22:39.383Z,62.48
2018-06-16T20:25:09.322Z,60.63
2018-06-16T20:27:39.866Z,62.47
2018-06-16T20:30:09.777Z,63.99
2018-06-16T20:32:40.050Z,64.30
2018-06-16T20:35:09.604Z,65.37
2018-06-16T20:37:39.822Z,65.13
2018-06-16T20:40:20.681Z,64.30
2018-06-16T20:42:52.826Z,62.47
2018-06-16T20:45:22.791Z,64.49
2018-06-16T20:47:52.345Z,64.97
2018-06-16T20:50:22.745Z,64.33
2018-06-16T20:52:52.577Z,65.71
2018-06-16T20:55:22.035Z,64.05
2018-06-16T20:57:51.685Z,64.45
2018-06-16T21:00:21.308Z,62.53
2018-06-16T21:02:50.769Z,63.60
2018-06-16T21:05:20.397Z,64.29
2018-06-16T21:07:49.871Z,62.76
2018-06-16T21:10:19.456Z,63.54
2018-06-16T21:12:49.811Z,64.47
2018-06-16T21:15:27.146Z,63.37
2018-06-16T21:17:58.023Z,63.89
2018-06-16T21:20:28.034Z,62.96
2018-06-16T21:22:58.088Z,64.96
2018-06-16T21:25:28.680Z,65.83
2018-06-16T21:27:58.218Z,66.31
2018-06-16T21:30:27.740Z,65.82
2018-06-16T21:32:57.286Z,66.40
2018-06-16T21:35:26.756Z,67.52
2018-06-16T21:37:56.458Z,67.65
2018-06-16T21:40:26.246Z,68.04
2018-06-16T21:42:55.878Z,67.84
2018-06-16T21:45:25.564Z,68.80
2018-06-16T21:47:55.660Z,69.26
2018-06-16T21:50:26.070Z,68.87
2018-06-16T21:53:05.534Z,69.96
2018-06-16T21:55:35.656Z,70.06
2018-06-16T21:58:06.203Z,70.62
2018-06-16T22:00:36.981Z,70.40
2018-06-16T22:03:07.635Z,70.82
2018-06-16T22:05:38.439Z,70.40
2018-06-16T22:08:13.350Z,69.86
2018-06-16T22:10:43.716Z,70.28
2018-06-16T22:13:15.438Z,69.57
2018-06-16T22:15:45.656Z,68.72
2018-06-16T22:18:15.644Z,68.70
2018-06-16T22:20:45.430Z,69.76
2018-06-16T22:23:16.178Z,70.27
2018-06-16T22:25:46.038Z,70.30
2018-06-16T22:28:16.122Z,71.55
2018-06-16T22:30:45.598Z,71.12
2018-06-16T22:33:15.043Z,71.54
2018-06-16T22:35:44.623Z,71.81
2018-06-16T22:38:14.343Z,72.13
2018-06-16T22:40:44.865Z,71.87
2018-06-16T22:43:14.312Z,72.17
2018-06-16T22:45:43.749Z,71.54
2018-06-16T22:48:13.436Z,72.01
2018-06-16T22:50:42.983Z,72.27
2018-06-16T22:53:12.466Z,71.62
2018-06-16T22:55:42.235Z,71.72
2018-06-16T22:58:11.879Z,71.58
2018-06-16T23:00:41.566Z,71.87
2018-06-16T23:03:11.037Z,72.44
2018-06-16T23:05:40.627Z,72.07
2018-06-16T23:08:11.680Z,72.05
2018-06-16T23:10:41.415Z,70.96
2018-06-16T23:13:11.694Z,70.76
2018-06-16T23:15:41.170Z,71.07
2018-06-16T23:18:11.283Z,66.71
2018-06-16T23:20:40.879Z,66.79
2018-06-16T23:23:10.788Z,64.38
2018-06-16T23:25:40.247Z,64.22
2018-06-16T23:28:10.337Z,64.07
2018-06-16T23:30:40.710Z,62.31
2018-06-16T23:33:11.313Z,62.35
2018-06-16T23:35:40.811Z,60.90
2018-06-16T23:38:10.252Z,60.21
2018-06-16T23:40:40.039Z,59.76
2018-06-16T23:43:09.697Z,61.03
2018-06-16T23:45:39.276Z,59.72
2018-06-16T23:48:08.730Z,60.88
2018-06-16T23:50:38.211Z,60.12
2018-06-16T23:53:07.813Z,59.52
2018-06-16T23:55:37.357Z,61.66
2018-06-16T23:58:06.799Z,60.28
